Strona główna
METAR-TAF:

METAR-TAF

Lotnisko :

Port lotniczy Kudat

Kudat, Malezja

Szerokość geograficzna: 06-55N, Długość geograficzna: 116-50E, wysokość: 3 m

Aktualna obserwacja pogody

Raport powstał 18 minut temu, godzina 22:00 UTC
Wiatr 6 kt od wschód, zmienny między północ i południowo-południowy wschód
Temperatura 26°C
Wilgotność 84%
Ciśnienie 1012 hPa
Widzialność 10 km lub więcej
Mało chmury na wysokości 1400 ft
Rozproszone chmury na wysokości 14000 ft
Przerywane chmury na wysokości 28000 ft

METAR: WBKT 232200Z 10006KT 010V150 9999 FEW014 SCT140 BKN280 26/23 Q1012

czas: 06:18 (22:18 UTC)


TAF: brakujący

Obserwacja i prognoza pogody dla ponad 4000 lotnisk (raport METAR i TAF).

Dostępne stacje oznaczono żółtymi i czerwonymi punktami na mapie.

Najedź kursorem aby zobaczyć nazwę stacji.

Kliknij aby zobaczyć obserwacje i prognozy pogody.

Aby zmienić mapę: kliknij na zielony przycisk z czarnym krzyżykiem, aby powiększyć; na zielony przycisk z myślnikiem, aby pomniejszyć; na zielone strzałki, aby przejść do map sąsiednich.


METAR-TAF: